Time;durP1;ratioP1;P1;durP2;ratioP2;P2;SDS_P1;SDS_P2;PMS_P1;PMS_P2;Temp;Humidity;BMP_temperature;BMP_pressure;BME280_temperature;BME280_humidity;BME280_pressure;Samples;Min_cycle;Max_cycle;Signal;HPM_P1;HPM_P2
2022/11/02 00:00:23;;;;;;;3.33;1.70;;;;;;;;;;5027033;28;20037;-88
2022/11/02 00:02:48;;;;;;;1.40;1.30;;;;;;;;;;5007042;28;20033;-86
2022/11/02 00:05:14;;;;;;;5.00;1.63;;;;;;;;;;5026183;28;20029;-86
2022/11/02 00:07:40;;;;;;;3.95;1.40;;;;;;;;;;5022964;28;20112;-86
2022/11/02 00:10:06;;;;;;;3.83;1.55;;;;;;;;;;5018224;28;20299;-86
2022/11/02 00:12:32;;;;;;;3.03;1.38;;;;;;;;;;5021685;28;20030;-85
2022/11/02 00:14:57;;;;;;;1.90;1.30;;;;;;;;;;5023617;28;20113;-86
2022/11/02 00:17:23;;;;;;;3.50;2.03;;;;;;;;;;5021786;28;20117;-85
2022/11/02 00:19:48;;;;;;;1.10;1.10;;;;;;;;;;5005391;28;20029;-85
2022/11/02 00:22:14;;;;;;;6.10;1.50;;;;;;;;;;5031981;28;20433;-87
2022/11/02 00:24:39;;;;;;;3.28;1.50;;;;;;;;;;5038057;28;20033;-88
2022/11/02 00:27:05;;;;;;;4.35;1.85;;;;;;;;;;5019238;28;20794;-87
2022/11/02 00:29:32;;;;;;;3.33;1.60;;;;;;;;;;5021704;28;20463;-86
2022/11/02 00:31:57;;;;;;;8.50;1.95;;;;;;;;;;5012013;28;20109;-88
2022/11/02 00:34:23;;;;;;;3.55;1.40;;;;;;;;;;5036734;28;20052;-87
2022/11/02 00:36:48;;;;;;;2.50;1.38;;;;;;;;;;5019556;28;20025;-87
2022/11/02 00:39:13;;;;;;;3.95;1.40;;;;;;;;;;5040791;28;20025;-87
2022/11/02 00:41:39;;;;;;;8.75;1.48;;;;;;;;;;5034208;28;20391;-88
2022/11/02 00:44:04;;;;;;;2.47;1.63;;;;;;;;;;5030173;28;20021;-87
2022/11/02 00:46:29;;;;;;;1.95;1.48;;;;;;;;;;5010960;28;20025;-86
2022/11/02 00:48:55;;;;;;;4.35;1.38;;;;;;;;;;5037196;28;20471;-87
2022/11/02 00:51:20;;;;;;;2.25;1.20;;;;;;;;;;5032795;28;20455;-87
2022/11/02 00:53:45;;;;;;;3.00;1.55;;;;;;;;;;5018056;28;20072;-88
2022/11/02 00:56:11;;;;;;;4.00;1.25;;;;;;;;;;5027428;28;20029;-88
2022/11/02 00:58:36;;;;;;;4.20;1.55;;;;;;;;;;5019411;28;20025;-88
2022/11/02 01:01:06;;;;;;;3.88;1.38;;;;;;;;;;5020198;28;20022;-88
2022/11/02 01:03:32;;;;;;;6.70;1.52;;;;;;;;;;5010175;28;20041;-88
2022/11/02 01:06:07;;;;;;;1.70;1.60;;;;;;;;;;5010622;28;20057;-87
2022/11/02 01:08:33;;;;;;;4.45;1.45;;;;;;;;;;5019600;28;20036;-87
2022/11/02 01:11:08;;;;;;;8.05;1.70;;;;;;;;;;5018235;28;20025;-90
2022/11/02 01:13:34;;;;;;;3.72;1.60;;;;;;;;;;5022269;28;20035;-89
2022/11/02 01:16:02;;;;;;;5.95;1.60;;;;;;;;;;5024759;28;20029;-89
2022/11/02 01:18:28;;;;;;;3.92;1.20;;;;;;;;;;5026618;28;20026;-89
2022/11/02 01:20:57;;;;;;;2.88;1.35;;;;;;;;;;5028316;28;20083;-89
2022/11/02 01:23:22;;;;;;;12.32;1.52;;;;;;;;;;5002388;28;20047;-89
2022/11/02 01:25:48;;;;;;;5.57;1.65;;;;;;;;;;5015694;28;20022;-88
2022/11/02 01:28:13;;;;;;;4.55;2.13;;;;;;;;;;5031635;28;20056;-89
2022/11/02 01:30:39;;;;;;;2.03;1.60;;;;;;;;;;5029822;28;20026;-89
2022/11/02 01:33:05;;;;;;;2.88;1.67;;;;;;;;;;5008669;28;20022;-90
2022/11/02 01:35:38;;;;;;;2.60;1.83;;;;;;;;;;5015334;28;20038;-90
2022/11/02 01:38:03;;;;;;;7.05;2.13;;;;;;;;;;5020336;28;20021;-90
2022/11/02 01:40:36;;;;;;;5.90;1.90;;;;;;;;;;5017507;28;20363;-90
2022/11/02 01:43:24;;;;;;;5.72;1.45;;;;;;;;;;5035713;28;20387;-89
2022/11/02 01:45:54;;;;;;;2.53;1.38;;;;;;;;;;5035928;28;20463;-89
2022/11/02 01:48:31;;;;;;;5.65;1.65;;;;;;;;;;5024301;28;20064;-89
2022/11/02 01:51:00;;;;;;;2.10;1.27;;;;;;;;;;5035027;28;20086;-88
2022/11/02 01:53:27;;;;;;;4.25;1.38;;;;;;;;;;5038022;28;20036;-88
2022/11/02 01:55:53;;;;;;;3.13;1.40;;;;;;;;;;5032547;28;20045;-89
2022/11/02 01:58:19;;;;;;;2.22;1.25;;;;;;;;;;5037341;28;20040;-89
2022/11/02 02:00:45;;;;;;;7.43;1.75;;;;;;;;;;5038548;28;20034;-88
2022/11/02 02:03:17;;;;;;;2.40;1.30;;;;;;;;;;5018289;28;20017;-88
2022/11/02 02:06:08;;;;;;;7.13;1.38;;;;;;;;;;5012183;28;20087;-88
2022/11/02 02:08:36;;;;;;;1.20;1.08;;;;;;;;;;5015321;28;20105;-88
2022/11/02 02:11:02;;;;;;;4.60;1.75;;;;;;;;;;5017455;28;20025;-89
2022/11/02 02:13:28;;;;;;;4.07;1.40;;;;;;;;;;5036962;28;20089;-88
2022/11/02 02:16:22;;;;;;;5.88;1.60;;;;;;;;;;5059252;28;20036;-89
2022/11/02 02:18:54;;;;;;;9.90;1.58;;;;;;;;;;5040682;28;20048;-89
2022/11/02 02:21:50;;;;;;;6.63;1.77;;;;;;;;;;5058650;28;20009;-88
2022/11/02 02:24:40;;;;;;;1.60;1.08;;;;;;;;;;5021932;28;20065;-86
2022/11/02 02:27:26;;;;;;;1.40;1.20;;;;;;;;;;5037537;28;20364;-87
2022/11/02 02:30:02;;;;;;;4.70;1.13;;;;;;;;;;5044812;28;20044;-87
2022/11/02 02:32:37;;;;;;;5.75;1.60;;;;;;;;;;5045574;28;20025;-87
2022/11/02 02:35:08;;;;;;;1.40;1.20;;;;;;;;;;5045147;28;20037;-87
2022/11/02 02:37:43;;;;;;;3.58;1.45;;;;;;;;;;5039986;28;20026;-87
2022/11/02 02:40:18;;;;;;;6.35;1.58;;;;;;;;;;5039354;28;20069;-87
2022/11/02 02:42:51;;;;;;;5.70;1.50;;;;;;;;;;5014623;28;20415;-86
2022/11/02 02:45:32;;;;;;;6.20;1.58;;;;;;;;;;5039504;28;20025;-87
2022/11/02 02:48:13;;;;;;;5.50;1.83;;;;;;;;;;5039080;28;20038;-88
2022/11/02 02:50:47;;;;;;;3.85;1.27;;;;;;;;;;5022929;28;20501;-87
2022/11/02 02:53:13;;;;;;;2.13;1.70;;;;;;;;;;5034405;28;20033;-87
2022/11/02 02:55:44;;;;;;;7.75;1.60;;;;;;;;;;5028091;28;20022;-87
2022/11/02 02:58:16;;;;;;;6.25;1.48;;;;;;;;;;5029121;28;20517;-88
2022/11/02 03:00:42;;;;;;;5.25;1.40;;;;;;;;;;5040027;28;20030;-87
2022/11/02 03:03:09;;;;;;;10.52;1.42;;;;;;;;;;5030691;28;20033;-87
2022/11/02 03:05:36;;;;;;;7.60;1.35;;;;;;;;;;5027077;28;20025;-87
2022/11/02 03:08:09;;;;;;;4.03;1.50;;;;;;;;;;5004271;28;20095;-86
2022/11/02 03:10:49;;;;;;;4.47;1.55;;;;;;;;;;5038424;28;20022;-87
2022/11/02 03:13:23;;;;;;;2.00;1.25;;;;;;;;;;5018655;28;20476;-86
2022/11/02 03:15:58;;;;;;;3.20;1.45;;;;;;;;;;5016223;28;20044;-87
2022/11/02 03:18:54;;;;;;;5.10;1.15;;;;;;;;;;5036185;28;20108;-88
2022/11/02 03:21:42;;;;;;;8.13;1.60;;;;;;;;;;5018590;28;20890;-88
2022/11/02 03:24:20;;;;;;;3.60;1.75;;;;;;;;;;5028723;28;20117;-88
2022/11/02 03:26:49;;;;;;;2.25;1.33;;;;;;;;;;5029047;28;20033;-88
2022/11/02 03:29:23;;;;;;;5.05;1.67;;;;;;;;;;5034946;28;20030;-88
2022/11/02 03:31:59;;;;;;;2.38;1.20;;;;;;;;;;5029296;28;20367;-88
2022/11/02 03:34:37;;;;;;;3.35;1.20;;;;;;;;;;5008044;28;20052;-88
2022/11/02 03:37:21;;;;;;;2.97;1.38;;;;;;;;;;5025672;28;20541;-87
2022/11/02 03:39:53;;;;;;;4.45;1.20;;;;;;;;;;5014960;28;20026;-88
2022/11/02 03:42:24;;;;;;;4.18;1.23;;;;;;;;;;5024351;28;20033;-89
2022/11/02 03:44:57;;;;;;;6.93;1.73;;;;;;;;;;5035971;28;20030;-88
2022/11/02 03:47:25;;;;;;;4.68;1.50;;;;;;;;;;5018785;28;20112;-88
2022/11/02 03:49:53;;;;;;;7.10;1.40;;;;;;;;;;5008779;28;20026;-88
2022/11/02 03:52:26;;;;;;;5.72;1.35;;;;;;;;;;5011990;28;20033;-88
2022/11/02 03:55:09;;;;;;;9.75;1.25;;;;;;;;;;5032365;28;20094;-88
2022/11/02 03:57:40;;;;;;;3.65;1.17;;;;;;;;;;5018217;28;20034;-87
2022/11/02 04:00:12;;;;;;;3.15;1.58;;;;;;;;;;5015578;28;20037;-87
2022/11/02 04:02:39;;;;;;;2.80;1.42;;;;;;;;;;5034305;28;20503;-87
2022/11/02 04:05:05;;;;;;;2.70;1.00;;;;;;;;;;5039103;28;20081;-88
2022/11/02 04:08:19;;;;;;;5.72;1.50;;;;;;;;;;5037679;28;20103;-87
2022/11/02 04:10:19;;;;;;;10.95;1.40;;;;;;;;;;5034419;28;20044;-88
2022/11/02 04:15:29;;;;;;;4.32;1.58;;;;;;;;;;5036684;28;20059;-88
2022/11/02 04:20:50;;;;;;;2.53;1.13;;;;;;;;;;4982614;28;20035;-90
2022/11/02 04:25:59;;;;;;;2.88;1.40;;;;;;;;;;5038177;28;20044;-87
2022/11/02 04:28:25;;;;;;;0.98;0.82;;;;;;;;;;5019862;28;20025;-88
2022/11/02 04:30:50;;;;;;;4.50;1.08;;;;;;;;;;5037788;28;20076;-87
2022/11/02 04:33:34;;;;;;;4.60;1.40;;;;;;;;;;5031799;28;20382;-88
2022/11/02 04:36:05;;;;;;;7.90;1.70;;;;;;;;;;5029499;28;20029;-88
2022/11/02 04:38:40;;;;;;;3.43;1.00;;;;;;;;;;5018079;28;20060;-88
2022/11/02 04:43:58;;;;;;;4.65;1.63;;;;;;;;;;5028416;28;20394;-88
2022/11/02 04:46:26;;;;;;;1.85;1.15;;;;;;;;;;5033578;28;20510;-88
2022/11/02 04:48:51;;;;;;;7.63;2.22;;;;;;;;;;5031301;28;20059;-88
2022/11/02 04:51:17;;;;;;;5.53;1.20;;;;;;;;;;5038084;23;20021;-82
2022/11/02 04:53:42;;;;;;;9.75;1.50;;;;;;;;;;4955807;28;20046;-82
2022/11/02 04:56:08;;;;;;;5.45;1.67;;;;;;;;;;4959073;28;20519;-82
2022/11/02 04:58:34;;;;;;;8.15;1.30;;;;;;;;;;4983806;28;20023;-83
2022/11/02 05:01:12;;;;;;;5.28;1.30;;;;;;;;;;4981557;28;20098;-82
2022/11/02 05:03:37;;;;;;;3.17;0.98;;;;;;;;;;4990100;28;20026;-83
2022/11/02 05:06:03;;;;;;;1.35;1.05;;;;;;;;;;4993579;28;20373;-83
2022/11/02 05:08:28;;;;;;;4.57;1.30;;;;;;;;;;4994851;28;20045;-82
2022/11/02 05:10:55;;;;;;;4.40;1.33;;;;;;;;;;5012714;28;20022;-81
2022/11/02 05:13:21;;;;;;;2.75;1.25;;;;;;;;;;5012768;28;20033;-81
2022/11/02 05:15:46;;;;;;;2.35;1.10;;;;;;;;;;5014807;28;20011;-81
2022/11/02 05:18:12;;;;;;;3.72;1.27;;;;;;;;;;4992738;28;20373;-82
2022/11/02 05:20:37;;;;;;;6.80;1.50;;;;;;;;;;4993677;28;20026;-81
2022/11/02 05:23:03;;;;;;;4.65;1.13;;;;;;;;;;4988179;28;20492;-83
2022/11/02 05:25:28;;;;;;;2.47;1.40;;;;;;;;;;4995613;28;20057;-82
2022/11/02 05:27:56;;;;;;;2.05;1.08;;;;;;;;;;4995273;28;20508;-82
2022/11/02 05:30:21;;;;;;;4.35;1.00;;;;;;;;;;4994402;28;20046;-82
2022/11/02 05:32:47;;;;;;;4.80;1.50;;;;;;;;;;4995162;28;20038;-82
2022/11/02 05:35:12;;;;;;;5.68;1.20;;;;;;;;;;4992125;28;20022;-82
2022/11/02 05:37:37;;;;;;;2.75;1.50;;;;;;;;;;4986811;28;20027;-82
2022/11/02 05:40:04;;;;;;;5.97;1.30;;;;;;;;;;4995509;28;20026;-82
2022/11/02 05:42:29;;;;;;;4.97;1.55;;;;;;;;;;4998451;28;20027;-82
2022/11/02 05:44:54;;;;;;;5.97;1.45;;;;;;;;;;4998989;28;20026;-81
2022/11/02 05:47:20;;;;;;;5.20;1.45;;;;;;;;;;4981004;28;20032;-82
2022/11/02 05:49:45;;;;;;;2.38;1.15;;;;;;;;;;4990241;28;20018;-82
2022/11/02 05:52:10;;;;;;;5.10;1.30;;;;;;;;;;4995644;28;20392;-82
2022/11/02 05:54:36;;;;;;;6.32;1.38;;;;;;;;;;4998787;28;20052;-82
2022/11/02 05:57:01;;;;;;;2.70;1.08;;;;;;;;;;4998991;28;20380;-82
2022/11/02 05:59:26;;;;;;;5.35;1.00;;;;;;;;;;4979119;28;20030;-82
2022/11/02 06:01:52;;;;;;;7.80;1.27;;;;;;;;;;4991987;28;20057;-82
2022/11/02 06:04:17;;;;;;;5.93;1.30;;;;;;;;;;4981136;28;20088;-81
2022/11/02 06:06:43;;;;;;;9.52;1.80;;;;;;;;;;5000983;28;20065;-81
2022/11/02 06:09:08;;;;;;;4.18;1.27;;;;;;;;;;5000813;28;20037;-82
2022/11/02 06:11:34;;;;;;;3.30;1.30;;;;;;;;;;4989252;28;20058;-82
2022/11/02 06:13:59;;;;;;;7.35;1.30;;;;;;;;;;4998296;28;20124;-83
2022/11/02 06:16:24;;;;;;;2.33;1.42;;;;;;;;;;4998307;28;20022;-82
2022/11/02 06:18:50;;;;;;;4.32;1.48;;;;;;;;;;4975369;28;20041;-82
2022/11/02 06:21:15;;;;;;;9.95;1.55;;;;;;;;;;4995571;28;20029;-83
2022/11/02 06:23:42;;;;;;;6.55;1.58;;;;;;;;;;4993996;28;20030;-82
2022/11/02 06:26:08;;;;;;;5.45;1.17;;;;;;;;;;4991740;28;20049;-82
2022/11/02 06:28:34;;;;;;;4.68;1.20;;;;;;;;;;4990572;28;20100;-81
2022/11/02 06:30:59;;;;;;;4.97;1.80;;;;;;;;;;4993658;28;20026;-82
2022/11/02 06:33:25;;;;;;;5.50;1.40;;;;;;;;;;4992762;28;20061;-82
2022/11/02 06:35:52;;;;;;;3.92;0.98;;;;;;;;;;4995724;28;20030;-82
2022/11/02 06:38:17;;;;;;;7.30;2.13;;;;;;;;;;4972815;28;20035;-82
2022/11/02 06:40:51;;;;;;;3.00;1.08;;;;;;;;;;4998558;28;20045;-83
2022/11/02 06:43:16;;;;;;;3.42;1.20;;;;;;;;;;4997742;28;20022;-82
2022/11/02 06:45:42;;;;;;;7.28;1.85;;;;;;;;;;4997706;28;20036;-83
2022/11/02 06:48:07;;;;;;;5.57;1.58;;;;;;;;;;4996962;28;20026;-83
2022/11/02 06:50:32;;;;;;;4.80;1.30;;;;;;;;;;4988939;28;20023;-84
2022/11/02 06:52:57;;;;;;;9.82;1.60;;;;;;;;;;4988704;28;20066;-83
2022/11/02 06:55:23;;;;;;;11.88;1.83;;;;;;;;;;5000363;28;20046;-87
2022/11/02 06:57:48;;;;;;;7.65;1.77;;;;;;;;;;4971718;28;20054;-84
2022/11/02 07:00:17;;;;;;;7.35;1.48;;;;;;;;;;4990261;28;20015;-84
2022/11/02 07:02:44;;;;;;;8.73;1.52;;;;;;;;;;4976021;28;20039;-85
2022/11/02 07:05:09;;;;;;;4.25;1.52;;;;;;;;;;4997053;28;20379;-85
2022/11/02 07:07:38;;;;;;;6.72;1.42;;;;;;;;;;4988201;28;20537;-84
2022/11/02 07:10:04;;;;;;;8.90;1.33;;;;;;;;;;4958709;28;20114;-85
2022/11/02 07:12:32;;;;;;;4.97;1.65;;;;;;;;;;4970256;28;20033;-84
2022/11/02 07:14:57;;;;;;;2.40;1.35;;;;;;;;;;4975396;28;20041;-83
2022/11/02 07:17:22;;;;;;;3.95;2.08;;;;;;;;;;4990023;28;20019;-84
2022/11/02 07:19:48;;;;;;;5.82;2.03;;;;;;;;;;4981546;28;20023;-84
2022/11/02 07:22:13;;;;;;;6.28;1.70;;;;;;;;;;4996441;28;20519;-83
2022/11/02 07:24:39;;;;;;;3.60;1.35;;;;;;;;;;4996639;28;20113;-84
2022/11/02 07:27:04;;;;;;;8.93;1.55;;;;;;;;;;4989521;28;20105;-83
2022/11/02 07:29:29;;;;;;;7.18;1.60;;;;;;;;;;4980180;28;20030;-84
2022/11/02 07:31:55;;;;;;;4.82;1.48;;;;;;;;;;4979623;28;20472;-83
2022/11/02 07:34:20;;;;;;;8.23;1.73;;;;;;;;;;4981673;28;20024;-83
2022/11/02 07:36:45;;;;;;;7.50;1.75;;;;;;;;;;4999465;28;20018;-85
2022/11/02 07:39:11;;;;;;;6.88;1.45;;;;;;;;;;4997458;28;20029;-84
2022/11/02 07:41:36;;;;;;;3.67;1.45;;;;;;;;;;4997125;28;20587;-83
2022/11/02 07:44:01;;;;;;;5.53;1.38;;;;;;;;;;4997892;28;20033;-84
2022/11/02 07:46:27;;;;;;;8.50;1.33;;;;;;;;;;4980393;28;20077;-84
2022/11/02 07:48:52;;;;;;;5.55;1.38;;;;;;;;;;4998419;28;20034;-83
2022/11/02 07:51:17;;;;;;;6.25;1.75;;;;;;;;;;4996470;28;20057;-82
2022/11/02 07:53:43;;;;;;;4.82;1.60;;;;;;;;;;4997985;28;20030;-83
2022/11/02 07:56:14;;;;;;;10.40;1.95;;;;;;;;;;4997577;28;20034;-86
2022/11/02 07:58:40;;;;;;;3.10;1.33;;;;;;;;;;4998910;28;20498;-84
2022/11/02 08:01:05;;;;;;;2.08;1.10;;;;;;;;;;4976988;28;20027;-83
2022/11/02 08:03:30;;;;;;;9.32;1.73;;;;;;;;;;4989654;28;20516;-84
2022/11/02 08:06:00;;;;;;;4.03;1.35;;;;;;;;;;4998128;28;20481;-83
2022/11/02 08:08:26;;;;;;;4.47;1.38;;;;;;;;;;4998235;28;20393;-83
2022/11/02 08:10:51;;;;;;;3.65;1.13;;;;;;;;;;4998038;28;20481;-82
2022/11/02 08:13:22;;;;;;;4.75;1.38;;;;;;;;;;4997638;28;20620;-84
2022/11/02 08:15:52;;;;;;;4.78;1.20;;;;;;;;;;4998314;28;20097;-84
2022/11/02 08:18:20;;;;;;;2.17;1.25;;;;;;;;;;4992723;28;20116;-84
2022/11/02 08:20:46;;;;;;;5.57;1.30;;;;;;;;;;4994865;28;20022;-84
2022/11/02 08:23:14;;;;;;;6.43;1.33;;;;;;;;;;4997168;28;20377;-84
2022/11/02 08:25:40;;;;;;;6.03;1.33;;;;;;;;;;4997705;28;20400;-84
2022/11/02 08:28:10;;;;;;;2.72;0.90;;;;;;;;;;4997604;28;20019;-83
2022/11/02 08:30:36;;;;;;;4.50;1.38;;;;;;;;;;4996849;28;20274;-82
2022/11/02 08:33:04;;;;;;;4.40;1.70;;;;;;;;;;4996897;28;20031;-84
2022/11/02 08:35:29;;;;;;;4.30;1.38;;;;;;;;;;4966643;28;20022;-82
2022/11/02 08:37:55;;;;;;;4.25;1.48;;;;;;;;;;4997071;28;20034;-83
2022/11/02 08:40:21;;;;;;;2.70;1.25;;;;;;;;;;4995976;28;20727;-83
2022/11/02 08:42:46;;;;;;;4.82;1.10;;;;;;;;;;4996618;28;20061;-83
2022/11/02 08:45:11;;;;;;;14.30;1.77;;;;;;;;;;4996379;28;20026;-82
2022/11/02 08:47:40;;;;;;;2.95;1.20;;;;;;;;;;4978334;28;20084;-83
2022/11/02 08:50:07;;;;;;;6.72;1.58;;;;;;;;;;4995646;28;20428;-83
2022/11/02 08:52:39;;;;;;;5.22;1.13;;;;;;;;;;4976950;28;20022;-84
2022/11/02 08:55:05;;;;;;;3.00;1.60;;;;;;;;;;4995887;28;20041;-82
2022/11/02 08:57:30;;;;;;;5.35;1.35;;;;;;;;;;4996328;28;20026;-83
2022/11/02 08:59:56;;;;;;;5.30;1.45;;;;;;;;;;4973257;28;20022;-83
2022/11/02 09:02:21;;;;;;;7.28;1.65;;;;;;;;;;4996185;28;20034;-83
2022/11/02 09:04:46;;;;;;;3.95;1.60;;;;;;;;;;4994952;28;20022;-83
2022/11/02 09:07:12;;;;;;;5.32;1.60;;;;;;;;;;4996846;28;20034;-83
2022/11/02 09:09:37;;;;;;;6.57;2.10;;;;;;;;;;4996610;28;20018;-84
2022/11/02 09:12:03;;;;;;;4.50;1.70;;;;;;;;;;4996503;28;20101;-83
2022/11/02 09:14:28;;;;;;;8.63;1.80;;;;;;;;;;4997018;28;20097;-83
2022/11/02 09:16:54;;;;;;;7.07;1.45;;;;;;;;;;4979716;28;20113;-83
2022/11/02 09:19:19;;;;;;;5.63;1.50;;;;;;;;;;4996356;28;20027;-83
2022/11/02 09:21:44;;;;;;;5.72;1.08;;;;;;;;;;4995093;28;20042;-83
2022/11/02 09:24:10;;;;;;;6.53;1.38;;;;;;;;;;4996923;28;20030;-83
2022/11/02 09:26:35;;;;;;;3.45;1.20;;;;;;;;;;4978954;28;20034;-83
2022/11/02 09:29:00;;;;;;;3.53;1.42;;;;;;;;;;4996652;28;20030;-83
2022/11/02 09:31:28;;;;;;;5.30;1.58;;;;;;;;;;4996109;28;20061;-83
2022/11/02 09:33:53;;;;;;;4.28;1.08;;;;;;;;;;4996039;28;20030;-84
2022/11/02 09:36:19;;;;;;;2.97;1.13;;;;;;;;;;4995385;28;20022;-83
2022/11/02 09:38:44;;;;;;;8.13;1.45;;;;;;;;;;4995935;28;20029;-83
2022/11/02 09:41:31;;;;;;;7.93;1.30;;;;;;;;;;4995528;28;20041;-83
2022/11/02 09:44:12;;;;;;;5.47;1.25;;;;;;;;;;4995928;28;20546;-83
2022/11/02 09:46:40;;;;;;;5.05;1.88;;;;;;;;;;4978985;28;20374;-83
2022/11/02 09:49:14;;;;;;;4.88;1.23;;;;;;;;;;4996443;28;20026;-82
2022/11/02 09:51:48;;;;;;;4.40;1.40;;;;;;;;;;4977365;28;20106;-81
2022/11/02 09:54:19;;;;;;;7.35;1.20;;;;;;;;;;5006273;28;20078;-82
2022/11/02 09:56:45;;;;;;;6.07;1.30;;;;;;;;;;5015736;28;20037;-81
2022/11/02 09:59:16;;;;;;;5.45;1.23;;;;;;;;;;5014824;28;20022;-82
2022/11/02 10:01:44;;;;;;;5.97;1.27;;;;;;;;;;5001085;28;20018;-83
2022/11/02 10:04:24;;;;;;;6.10;1.25;;;;;;;;;;4995896;28;20428;-83
2022/11/02 10:07:07;;;;;;;2.88;0.95;;;;;;;;;;4996268;28;20027;-83
2022/11/02 10:09:38;;;;;;;3.00;1.30;;;;;;;;;;4978431;28;20105;-82
2022/11/02 10:12:35;;;;;;;7.90;1.50;;;;;;;;;;4995418;28;20022;-83
2022/11/02 10:15:09;;;;;;;3.03;0.93;;;;;;;;;;4956105;28;20041;-85
2022/11/02 10:17:37;;;;;;;6.35;1.20;;;;;;;;;;4995220;28;20088;-82
2022/11/02 10:20:09;;;;;;;4.93;1.15;;;;;;;;;;4978669;28;20019;-81
2022/11/02 10:22:40;;;;;;;11.00;1.65;;;;;;;;;;4995848;28;20113;-82
2022/11/02 10:25:06;;;;;;;6.07;1.13;;;;;;;;;;4987265;28;20043;-84
2022/11/02 10:27:38;;;;;;;5.93;1.42;;;;;;;;;;4998714;28;20034;-84
2022/11/02 10:30:14;;;;;;;6.30;2.15;;;;;;;;;;4980727;28;20022;-85
2022/11/02 10:32:41;;;;;;;3.97;1.33;;;;;;;;;;4997016;28;20054;-83
2022/11/02 10:35:19;;;;;;;6.90;1.52;;;;;;;;;;4997474;28;20102;-82
2022/11/02 10:38:18;;;;;;;3.38;1.23;;;;;;;;;;4996323;28;20041;-83
2022/11/02 10:41:04;;;;;;;3.10;1.42;;;;;;;;;;4996217;28;20469;-83
2022/11/02 10:43:52;;;;;;;8.20;1.60;;;;;;;;;;4993899;28;20528;-83
2022/11/02 10:46:40;;;;;;;12.02;3.50;;;;;;;;;;4959530;28;20034;-83
2022/11/02 10:49:33;;;;;;;6.60;1.38;;;;;;;;;;4985925;28;20030;-83
2022/11/02 10:51:59;;;;;;;4.88;1.48;;;;;;;;;;4995714;28;20041;-83
2022/11/02 10:54:25;;;;;;;4.40;1.30;;;;;;;;;;4995092;28;20476;-82
2022/11/02 10:56:50;;;;;;;7.28;1.60;;;;;;;;;;4978704;28;20026;-83
2022/11/02 10:59:18;;;;;;;5.85;1.40;;;;;;;;;;4996571;28;20431;-83
2022/11/02 11:01:47;;;;;;;9.55;1.10;;;;;;;;;;4996689;28;20034;-83
2022/11/02 11:04:29;;;;;;;8.35;1.50;;;;;;;;;;4997148;28;20049;-83
2022/11/02 11:06:56;;;;;;;4.88;1.25;;;;;;;;;;4995702;28;20026;-83
2022/11/02 11:09:36;;;;;;;5.22;1.45;;;;;;;;;;4995561;28;20096;-84
2022/11/02 11:12:05;;;;;;;4.45;1.38;;;;;;;;;;4996844;28;20243;-83
2022/11/02 11:14:38;;;;;;;7.75;1.67;;;;;;;;;;4999890;28;20034;-83
2022/11/02 11:17:14;;;;;;;6.88;1.60;;;;;;;;;;4981110;28;20045;-84
2022/11/02 11:19:51;;;;;;;6.80;1.58;;;;;;;;;;4998181;28;20022;-82
2022/11/02 11:22:24;;;;;;;9.00;1.33;;;;;;;;;;4998504;28;20082;-83
2022/11/02 11:24:50;;;;;;;4.72;1.20;;;;;;;;;;4998837;28;20452;-83
2022/11/02 11:27:22;;;;;;;3.42;0.93;;;;;;;;;;4999833;28;20361;-84
2022/11/02 11:29:54;;;;;;;3.13;1.35;;;;;;;;;;4998894;28;20481;-83
2022/11/02 11:32:27;;;;;;;7.00;1.30;;;;;;;;;;4999402;28;20105;-83
2022/11/02 11:35:05;;;;;;;6.80;1.42;;;;;;;;;;4991847;28;20034;-83
2022/11/02 11:37:31;;;;;;;5.80;1.17;;;;;;;;;;4999476;28;20041;-83
2022/11/02 11:40:02;;;;;;;5.10;1.17;;;;;;;;;;5000071;28;20026;-82
2022/11/02 11:42:32;;;;;;;6.05;1.73;;;;;;;;;;5000326;28;20429;-84
2022/11/02 11:45:13;;;;;;;7.10;1.33;;;;;;;;;;5000277;28;20030;-83
2022/11/02 11:47:41;;;;;;;1.52;0.90;;;;;;;;;;4999927;28;20026;-83
2022/11/02 11:50:14;;;;;;;9.15;1.63;;;;;;;;;;5000152;28;20433;-84
2022/11/02 11:52:39;;;;;;;4.72;1.35;;;;;;;;;;5000385;28;20085;-83
2022/11/02 11:55:26;;;;;;;4.38;1.30;;;;;;;;;;5000926;28;20385;-83
2022/11/02 11:58:05;;;;;;;3.53;1.10;;;;;;;;;;5000016;28;20061;-83
2022/11/02 12:00:31;;;;;;;2.63;0.95;;;;;;;;;;4999087;28;20428;-84
2022/11/02 12:03:09;;;;;;;4.65;1.00;;;;;;;;;;5000096;28;20092;-83
2022/11/02 12:05:56;;;;;;;4.38;1.08;;;;;;;;;;5000736;28;20022;-83
2022/11/02 12:08:41;;;;;;;5.18;1.23;;;;;;;;;;4981385;28;20370;-84
2022/11/02 12:11:11;;;;;;;6.68;1.52;;;;;;;;;;4980917;28;20022;-83
2022/11/02 12:13:50;;;;;;;8.75;1.50;;;;;;;;;;4964110;28;20050;-83
2022/11/02 12:17:03;;;;;;;6.03;0.98;;;;;;;;;;4964272;28;20022;-83
2022/11/02 12:19:46;;;;;;;9.02;2.42;;;;;;;;;;4982007;28;20394;-83
2022/11/02 12:22:46;;;;;;;4.45;1.13;;;;;;;;;;4990349;28;20049;-83
2022/11/02 12:25:22;;;;;;;12.15;1.35;;;;;;;;;;4977042;28;20022;-83
2022/11/02 12:28:03;;;;;;;3.40;1.05;;;;;;;;;;4999239;28;20092;-83
2022/11/02 12:30:55;;;;;;;3.55;1.25;;;;;;;;;;4979637;28;20090;-82
2022/11/02 12:33:32;;;;;;;6.35;1.38;;;;;;;;;;4965002;28;20053;-82
2022/11/02 12:36:14;;;;;;;3.17;1.02;;;;;;;;;;4990909;28;20115;-83
2022/11/02 12:38:57;;;;;;;4.67;1.23;;;;;;;;;;4981371;28;20026;-83
2022/11/02 12:41:59;;;;;;;5.70;1.35;;;;;;;;;;4981849;28;20269;-84
2022/11/02 12:44:27;;;;;;;12.98;1.73;;;;;;;;;;4981526;28;20431;-83
2022/11/02 12:47:09;;;;;;;6.60;1.67;;;;;;;;;;4983105;28;20031;-84
2022/11/02 12:49:50;;;;;;;6.20;1.10;;;;;;;;;;4978050;28;20093;-81
2022/11/02 12:52:43;;;;;;;6.18;1.70;;;;;;;;;;4968177;28;20034;-83
2022/11/02 12:55:32;;;;;;;4.35;1.20;;;;;;;;;;4991153;28;20030;-83
2022/11/02 12:58:03;;;;;;;2.92;1.00;;;;;;;;;;4998466;28;20034;-83
2022/11/02 13:00:31;;;;;;;3.35;1.13;;;;;;;;;;4998638;28;20014;-86
2022/11/02 13:03:15;;;;;;;5.75;1.30;;;;;;;;;;4998565;28;20022;-84
2022/11/02 13:05:53;;;;;;;6.43;1.77;;;;;;;;;;4996760;28;20019;-86
2022/11/02 13:08:34;;;;;;;4.65;1.35;;;;;;;;;;4977027;28;20022;-86
2022/11/02 13:11:41;;;;;;;2.85;1.05;;;;;;;;;;4999758;28;20022;-86
2022/11/02 13:14:31;;;;;;;3.50;1.30;;;;;;;;;;4989174;28;20038;-83
2022/11/02 13:17:02;;;;;;;6.97;1.20;;;;;;;;;;4991260;28;20030;-84
2022/11/02 13:20:05;;;;;;;4.35;1.45;;;;;;;;;;5001973;28;20042;-87
2022/11/02 13:22:39;;;;;;;;;;;;;;;;;;4972079;28;20092;-85
2022/11/02 13:25:30;;;;;;;8.32;1.00;;;;;;;;;;4993136;28;19909;-87
2022/11/02 13:28:06;;;;;;;4.20;1.08;;;;;;;;;;4983870;28;20026;-84
2022/11/02 13:30:32;;;;;;;5.90;1.38;;;;;;;;;;4968157;28;20025;-84
2022/11/02 13:33:03;;;;;;;4.85;1.60;;;;;;;;;;4982978;28;20081;-84
2022/11/02 13:35:37;;;;;;;6.10;1.17;;;;;;;;;;4999259;28;20049;-85
2022/11/02 13:38:11;;;;;;;10.20;1.50;;;;;;;;;;4998805;28;20033;-84
2022/11/02 13:40:59;;;;;;;5.68;1.50;;;;;;;;;;4998075;28;20033;-85
2022/11/02 13:44:22;;;;;;;5.15;1.52;;;;;;;;;;4999474;28;20034;-84
2022/11/02 13:46:53;;;;;;;;;;;;;;;;;;4956789;29;20086;-82
2022/11/02 13:49:33;;;;;;;4.38;1.20;;;;;;;;;;4941525;29;20262;-85
2022/11/02 13:52:03;;;;;;;4.35;1.23;;;;;;;;;;4986474;28;20489;-85
2022/11/02 13:54:42;;;;;;;5.88;1.35;;;;;;;;;;4998230;28;20022;-84
2022/11/02 13:57:32;;;;;;;6.18;1.90;;;;;;;;;;4981373;28;20117;-84
2022/11/02 14:00:00;;;;;;;7.97;1.23;;;;;;;;;;4996835;28;20022;-84
2022/11/02 14:02:29;;;;;;;4.13;1.25;;;;;;;;;;4998648;28;20037;-84
2022/11/02 14:04:55;;;;;;;5.05;1.40;;;;;;;;;;4985631;28;20030;-84
2022/11/02 14:07:25;;;;;;;5.70;1.55;;;;;;;;;;5001440;28;20026;-85
2022/11/02 14:09:58;;;;;;;5.35;1.40;;;;;;;;;;5001341;28;20026;-86
2022/11/02 14:12:23;;;;;;;7.28;1.98;;;;;;;;;;4982974;28;20018;-85
2022/11/02 14:15:13;;;;;;;12.02;1.80;;;;;;;;;;4995375;28;20041;-84
2022/11/02 14:17:55;;;;;;;5.20;1.30;;;;;;;;;;4984728;28;20022;-84
2022/11/02 14:20:38;;;;;;;4.18;1.45;;;;;;;;;;4992998;28;20045;-85
2022/11/02 14:23:17;;;;;;;4.88;1.38;;;;;;;;;;4998776;28;20109;-84
2022/11/02 14:25:46;;;;;;;9.05;1.45;;;;;;;;;;4979348;28;20034;-84
2022/11/02 14:28:20;;;;;;;3.72;1.38;;;;;;;;;;4982929;28;20077;-84
2022/11/02 14:31:07;;;;;;;3.70;1.42;;;;;;;;;;4982650;28;20065;-84
2022/11/02 14:34:11;;;;;;;6.50;1.83;;;;;;;;;;4978223;28;20065;-84
2022/11/02 14:36:58;;;;;;;3.90;1.20;;;;;;;;;;4964448;28;20049;-83
2022/11/02 14:39:55;;;;;;;11.95;1.60;;;;;;;;;;5001172;28;20049;-84
2022/11/02 14:42:50;;;;;;;8.50;1.42;;;;;;;;;;4997760;28;20039;-83
2022/11/02 14:45:28;;;;;;;9.55;1.73;;;;;;;;;;5010001;28;20010;-84
2022/11/02 14:47:57;;;;;;;7.25;1.40;;;;;;;;;;4995668;28;20033;-84
2022/11/02 14:50:24;;;;;;;4.57;1.20;;;;;;;;;;4992980;28;20030;-83
2022/11/02 14:53:04;;;;;;;4.78;1.33;;;;;;;;;;4994901;28;20114;-84
2022/11/02 14:55:35;;;;;;;5.68;1.80;;;;;;;;;;4997802;28;20080;-84
2022/11/02 14:58:14;;;;;;;7.95;1.50;;;;;;;;;;4991573;28;20057;-84
2022/11/02 15:00:48;;;;;;;6.70;1.60;;;;;;;;;;4994255;28;20066;-84
2022/11/02 15:03:27;;;;;;;12.65;2.25;;;;;;;;;;4997079;28;20102;-83
2022/11/02 15:06:19;;;;;;;7.70;1.80;;;;;;;;;;4996477;28;20034;-83
2022/11/02 15:08:59;;;;;;;2.60;1.25;;;;;;;;;;4996323;28;20033;-83
2022/11/02 15:11:46;;;;;;;5.28;1.50;;;;;;;;;;4995804;28;20116;-83
2022/11/02 15:14:34;;;;;;;12.02;1.77;;;;;;;;;;4998596;28;20037;-85
2022/11/02 15:17:01;;;;;;;6.40;1.77;;;;;;;;;;5008810;28;20089;-86
2022/11/02 15:19:37;;;;;;;11.90;2.00;;;;;;;;;;5001025;28;20069;-84
2022/11/02 15:22:28;;;;;;;2.67;1.20;;;;;;;;;;5001781;28;20030;-82